Time;durP1;ratioP1;P1;durP2;ratioP2;P2;SDS_P1;SDS_P2;PMS_P1;PMS_P2;Temp;Humidity;BMP_temperature;BMP_pressure;BME280_temperature;BME280_humidity;BME280_pressure;Samples;Min_cycle;Max_cycle;Signal;HPM_P1;HPM_P2
2021/08/10 00:00:56;;;;;;;;;;;13.10;99.90;;;;;;5060501;28;20466;-66
2021/08/10 00:03:22;;;;;;;7.20;1.88;;;13.10;99.90;;;;;;5060893;28;20000;-66
2021/08/10 00:05:48;;;;;;;;;;;13.20;99.90;;;;;;5061770;28;20600;-66
2021/08/10 00:08:17;;;;;;;5.43;1.77;;;13.10;99.90;;;;;;5061123;28;19927;-66
2021/08/10 00:10:44;;;;;;;8.32;1.63;;;13.10;99.90;;;;;;5062281;28;20408;-66
2021/08/10 00:13:11;;;;;;;4.10;2.20;;;13.10;99.90;;;;;;5061808;28;20128;-66
2021/08/10 00:15:37;;;;;;;5.45;1.70;;;13.20;99.90;;;;;;5061142;28;20497;-66
2021/08/10 00:18:03;;;;;;;3.45;1.90;;;13.20;99.90;;;;;;5054241;28;20037;-66
2021/08/10 00:20:28;;;;;;;;;;;13.20;99.90;;;;;;5049721;28;20041;-66
2021/08/10 00:22:54;;;;;;;4.13;1.80;;;13.10;99.90;;;;;;5048897;28;20036;-66
2021/08/10 00:25:20;;;;;;;;;;;13.20;99.90;;;;;;5045473;28;20493;-67
2021/08/10 00:27:45;;;;;;;4.88;1.73;;;13.20;99.90;;;;;;5044091;28;19962;-67
2021/08/10 00:30:11;;;;;;;;;;;13.20;99.90;;;;;;5048702;28;20037;-66
2021/08/10 00:32:36;;;;;;;6.82;1.83;;;13.20;99.90;;;;;;5048989;28;19964;-67
2021/08/10 00:35:02;;;;;;;;;;;13.30;99.90;;;;;;5049609;28;20132;-66
2021/08/10 00:37:28;;;;;;;2.45;1.23;;;13.20;99.90;;;;;;5048177;28;19920;-66
2021/08/10 00:39:54;;;;;;;;;;;13.30;99.90;;;;;;5048348;28;20033;-66
2021/08/10 00:42:19;;;;;;;6.20;1.60;;;13.30;99.90;;;;;;5049285;28;19928;-66
2021/08/10 00:44:45;;;;;;;;;;;13.20;99.90;;;;;;5049241;28;20037;-66
2021/08/10 00:47:10;;;;;;;6.72;1.63;;;13.30;99.90;;;;;;5047416;28;19928;-66
2021/08/10 00:49:36;;;;;;;;;;;13.20;99.90;;;;;;5049160;28;20041;-66
2021/08/10 00:52:02;;;;;;;4.57;1.92;;;13.20;99.90;;;;;;5048449;28;19920;-66
2021/08/10 00:54:27;;;;;;;;;;;13.20;99.90;;;;;;5049242;28;20037;-66
2021/08/10 00:56:54;;;;;;;5.28;1.52;;;13.20;99.90;;;;;;5047959;28;20151;-66
2021/08/10 00:59:19;;;;;;;7.05;1.83;;;13.20;99.90;;;;;;5047781;28;20045;-67
2021/08/10 01:01:45;;;;;;;;;;;13.20;99.90;;;;;;5031374;28;20048;-67
2021/08/10 01:04:11;;;;;;;8.43;1.60;;;13.20;99.90;;;;;;5028649;28;19917;-66
2021/08/10 01:06:59;;;;;;;;;;;13.20;99.90;;;;;;5032936;28;20080;-66
2021/08/10 01:09:29;;;;;;;;;;;13.20;99.90;;;;;;5039561;28;19913;-67
2021/08/10 01:12:13;;;;;;;4.60;2.08;;;13.20;99.90;;;;;;5048079;28;19917;-66
2021/08/10 01:14:51;;;;;;;5.70;1.70;;;13.20;99.90;;;;;;5041675;28;20519;-64
2021/08/10 01:17:27;;;;;;;4.10;1.75;;;13.10;99.90;;;;;;5045692;28;20052;-64
2021/08/10 01:20:23;;;;;;;7.22;2.65;;;13.10;99.90;;;;;;5048119;28;20121;-66
2021/08/10 01:22:52;;;;;;;10.95;2.00;;;13.10;99.90;;;;;;5038126;28;20103;-65
2021/08/10 01:25:55;;;;;;;4.13;1.73;;;13.10;99.90;;;;;;5046525;28;20045;-65
2021/08/10 01:28:51;;;;;;;6.80;1.75;;;13.10;99.90;;;;;;5046908;28;20041;-65
2021/08/10 01:31:26;;;;;;;4.82;1.90;;;13.10;99.90;;;;;;5044730;28;20082;-65
2021/08/10 01:33:58;;;;;;;7.95;1.83;;;13.10;99.90;;;;;;5046937;28;20045;-65
2021/08/10 01:36:25;;;;;;;5.18;1.65;;;13.20;99.90;;;;;;5046206;28;20044;-65
2021/08/10 01:38:56;;;;;;;5.60;1.75;;;13.10;99.90;;;;;;5046302;28;20068;-65
2021/08/10 01:41:24;;;;;;;5.43;1.67;;;13.20;99.90;;;;;;5027211;28;20041;-65
2021/08/10 01:43:52;;;;;;;6.65;1.90;;;13.20;99.90;;;;;;5026622;28;20041;-65
2021/08/10 01:46:21;;;;;;;7.70;2.63;;;13.20;99.90;;;;;;5025549;28;20160;-65
2021/08/10 01:48:47;;;;;;;5.60;1.90;;;13.10;99.90;;;;;;5038766;28;20562;-66
2021/08/10 01:51:12;;;;;;;;;;;13.20;99.90;;;;;;5047040;28;20060;-65
2021/08/10 01:53:39;;;;;;;4.82;1.58;;;13.10;99.90;;;;;;5046387;28;20051;-65
2021/08/10 01:56:06;;;;;;;10.00;2.05;;;13.10;99.90;;;;;;5045757;28;20409;-65
2021/08/10 01:58:33;;;;;;;6.20;2.40;;;13.10;99.90;;;;;;5045361;28;20049;-65
2021/08/10 02:01:00;;;;;;;6.22;2.00;;;13.10;99.90;;;;;;5044050;28;20539;-65
2021/08/10 02:03:26;;;;;;;3.50;1.95;;;13.10;99.90;;;;;;5045459;28;20079;-65
2021/08/10 02:05:53;;;;;;;4.65;2.20;;;13.10;99.90;;;;;;5045549;28;20045;-66
2021/08/10 02:08:21;;;;;;;5.95;1.77;;;13.10;99.90;;;;;;5043669;28;20041;-65
2021/08/10 02:10:47;;;;;;;8.30;2.10;;;13.20;99.90;;;;;;5045500;28;20041;-65
2021/08/10 02:13:14;;;;;;;5.75;2.03;;;13.10;99.90;;;;;;5045426;28;20075;-65
2021/08/10 02:15:43;;;;;;;5.00;2.20;;;13.10;99.90;;;;;;5044249;28;20494;-65
2021/08/10 02:18:09;;;;;;;6.07;2.20;;;13.10;99.90;;;;;;5046256;28;20041;-65
2021/08/10 02:20:36;;;;;;;;;;;13.00;99.90;;;;;;5046171;28;20052;-65
2021/08/10 02:23:03;;;;;;;18.27;9.38;;;13.00;99.90;;;;;;5045128;28;19917;-65
2021/08/10 02:25:29;;;;;;;19.65;8.40;;;13.00;99.90;;;;;;5044504;28;20251;-65
2021/08/10 02:27:57;;;;;;;86.60;53.28;;;13.00;99.90;;;;;;5045319;28;20037;-65
2021/08/10 02:30:29;;;;;;;31.60;18.02;;;13.00;99.90;;;;;;5044884;28;20485;-65
2021/08/10 02:32:57;;;;;;;10.00;5.63;;;13.10;99.90;;;;;;5045659;28;20037;-65
2021/08/10 02:35:25;;;;;;;5.53;2.38;;;13.10;99.90;;;;;;5042920;28;20037;-64
2021/08/10 02:37:53;;;;;;;3.75;1.92;;;13.00;99.90;;;;;;5045401;28;20040;-65
2021/08/10 02:40:21;;;;;;;6.82;1.98;;;13.00;99.90;;;;;;5044430;28;20041;-65
2021/08/10 02:42:54;;;;;;;4.97;2.50;;;12.90;99.90;;;;;;5045462;28;20217;-65
2021/08/10 02:45:21;;;;;;;5.85;1.85;;;13.00;99.90;;;;;;5044438;28;20051;-65
2021/08/10 02:47:51;;;;;;;5.05;1.90;;;13.00;99.90;;;;;;5046189;28;20044;-65
2021/08/10 02:50:18;;;;;;;5.03;1.70;;;13.00;99.90;;;;;;5045727;28;20052;-65
2021/08/10 02:52:44;;;;;;;6.38;2.40;;;12.90;99.90;;;;;;5045331;28;20512;-64
2021/08/10 02:55:10;;;;;;;4.72;1.60;;;13.00;99.90;;;;;;5044789;28;20522;-64
2021/08/10 02:57:47;;;;;;;;;;;13.00;99.90;;;;;;5044918;28;20071;-65
2021/08/10 03:00:14;;;;;;;4.55;1.75;;;13.00;99.90;;;;;;5045606;28;19936;-64
2021/08/10 03:02:56;;;;;;;6.45;1.85;;;13.00;99.90;;;;;;5046386;28;20041;-65
2021/08/10 03:05:25;;;;;;;7.75;2.47;;;13.00;99.90;;;;;;5044954;28;20520;-64
2021/08/10 03:07:57;;;;;;;5.07;1.65;;;12.90;99.90;;;;;;5046335;28;20079;-65
2021/08/10 03:10:31;;;;;;;4.30;1.92;;;12.90;99.90;;;;;;5037184;28;20033;-65
2021/08/10 03:13:02;;;;;;;6.18;2.58;;;12.80;99.90;;;;;;5045657;28;20041;-65
2021/08/10 03:15:31;;;;;;;5.88;1.95;;;12.80;99.90;;;;;;5045171;28;20056;-65
2021/08/10 03:18:00;;;;;;;5.30;1.70;;;12.80;99.90;;;;;;5045831;28;20131;-65
2021/08/10 03:20:26;;;;;;;3.72;1.73;;;12.80;99.90;;;;;;5046599;28;20044;-64
2021/08/10 03:22:53;;;;;;;4.10;1.70;;;12.90;99.90;;;;;;5046117;28;20041;-65
2021/08/10 03:25:20;;;;;;;4.00;1.95;;;12.80;99.90;;;;;;5045160;28;20076;-65
2021/08/10 03:27:49;;;;;;;3.45;1.67;;;12.80;99.90;;;;;;5046439;28;20049;-65
2021/08/10 03:30:16;;;;;;;9.40;1.85;;;12.80;99.90;;;;;;5045396;28;20029;-65
2021/08/10 03:32:43;;;;;;;8.57;2.05;;;12.80;99.90;;;;;;5045798;28;20080;-64
2021/08/10 03:35:09;;;;;;;8.10;1.75;;;12.70;99.90;;;;;;5045654;28;20040;-64
2021/08/10 03:37:35;;;;;;;;;;;12.70;99.90;;;;;;5046134;28;20044;-65
2021/08/10 03:40:01;;;;;;;6.45;1.58;;;12.70;99.90;;;;;;5045947;28;19917;-65
2021/08/10 03:42:28;;;;;;;3.97;2.08;;;12.70;99.90;;;;;;5044682;28;20045;-65
2021/08/10 03:44:54;;;;;;;6.10;2.28;;;12.70;99.90;;;;;;5045830;28;20045;-65
2021/08/10 03:47:21;;;;;;;3.65;1.65;;;12.70;99.90;;;;;;5044297;28;20088;-65
2021/08/10 03:49:48;;;;;;;9.43;2.28;;;12.80;99.90;;;;;;5045721;28;20567;-65
2021/08/10 03:52:15;;;;;;;3.70;1.42;;;12.70;99.90;;;;;;5044893;28;20124;-64
2021/08/10 03:54:42;;;;;;;5.78;1.88;;;12.60;99.90;;;;;;5047341;28;20567;-65
2021/08/10 03:57:13;;;;;;;7.13;2.10;;;12.60;99.90;;;;;;5046985;28;20052;-65
2021/08/10 03:59:40;;;;;;;6.50;2.08;;;12.60;99.90;;;;;;5049181;28;20045;-65
2021/08/10 04:02:07;;;;;;;5.40;2.05;;;12.60;99.90;;;;;;5048801;28;20037;-65
2021/08/10 04:04:33;;;;;;;3.03;1.77;;;12.60;99.90;;;;;;5049096;28;20045;-65
2021/08/10 04:07:01;;;;;;;9.75;1.80;;;12.60;99.90;;;;;;5048969;28;20102;-66
2021/08/10 04:09:26;;;;;;;5.07;1.70;;;12.60;99.90;;;;;;5049477;28;20527;-65
2021/08/10 04:11:52;;;;;;;;;;;12.60;99.90;;;;;;5049336;28;20068;-66
2021/08/10 04:14:19;;;;;;;3.33;2.20;;;12.60;99.90;;;;;;5048894;28;19921;-66
2021/08/10 04:16:53;;;;;;;9.82;1.95;;;12.60;99.90;;;;;;5047695;28;20040;-66
2021/08/10 04:19:22;;;;;;;3.30;1.60;;;12.60;99.90;;;;;;5063844;28;20037;-65
2021/08/10 04:21:48;;;;;;;5.85;2.15;;;12.70;99.90;;;;;;5048728;28;20033;-65
2021/08/10 04:24:13;;;;;;;;;;;12.70;99.90;;;;;;5049112;28;20045;-65
2021/08/10 04:26:39;;;;;;;7.40;1.98;;;12.70;99.90;;;;;;5048262;28;19925;-65
2021/08/10 04:29:05;;;;;;;;;;;12.70;99.90;;;;;;5048790;28;20477;-65
2021/08/10 04:31:30;;;;;;;6.63;1.80;;;12.60;99.90;;;;;;5046642;28;19973;-66
2021/08/10 04:33:56;;;;;;;;;;;12.70;99.90;;;;;;5049193;28;20733;-66
2021/08/10 04:36:22;;;;;;;8.93;1.85;;;12.70;99.90;;;;;;5080814;28;20449;-65
2021/08/10 04:38:47;;;;;;;;;;;12.70;99.90;;;;;;5049263;28;20048;-65
2021/08/10 04:41:13;;;;;;;7.53;3.15;;;12.70;99.90;;;;;;5048551;28;20011;-66
2021/08/10 04:43:38;;;;;;;;;;;12.70;99.90;;;;;;5045853;28;20397;-65
2021/08/10 04:46:04;;;;;;;67.90;43.20;;;12.70;99.90;;;;;;5039191;28;19994;-65
2021/08/10 04:48:29;;;;;;;;;;;12.70;99.90;;;;;;5048910;28;20076;-66
2021/08/10 04:50:55;;;;;;;131.00;73.57;;;12.80;99.90;;;;;;5050284;28;19912;-66
2021/08/10 04:53:20;;;;;;;;;;;12.80;99.90;;;;;;5048938;28;20407;-67
2021/08/10 04:55:46;;;;;;;37.80;21.05;;;12.80;99.90;;;;;;5047594;28;19920;-65
2021/08/10 04:58:12;;;;;;;;;;;12.80;99.90;;;;;;5048143;28;20846;-65
2021/08/10 05:00:37;;;;;;;10.93;4.28;;;12.80;99.90;;;;;;5046685;28;19925;-65
2021/08/10 05:03:03;;;;;;;;;;;12.80;99.90;;;;;;5047660;28;20586;-65
2021/08/10 05:05:28;;;;;;;18.60;9.75;;;12.90;99.90;;;;;;5046894;28;19921;-65
2021/08/10 05:07:54;;;;;;;;;;;12.90;99.90;;;;;;5047957;28;20076;-65
2021/08/10 05:10:20;;;;;;;9.18;3.78;;;12.90;99.90;;;;;;5047900;28;19984;-65
2021/08/10 05:12:45;;;;;;;;;;;13.00;99.90;;;;;;5048569;28;20522;-65
2021/08/10 05:15:11;;;;;;;52.55;29.15;;;12.90;99.90;;;;;;5047418;28;20416;-65
2021/08/10 05:17:36;;;;;;;;;;;13.00;99.90;;;;;;5048229;28;20055;-65
2021/08/10 05:20:02;;;;;;;15.98;6.78;;;13.00;99.90;;;;;;5047825;28;20003;-66
2021/08/10 05:22:28;;;;;;;11.30;2.88;;;13.00;99.90;;;;;;5047231;28;20374;-69
2021/08/10 05:24:53;;;;;;;;;;;13.00;99.90;;;;;;5047884;28;20067;-67
2021/08/10 05:27:19;;;;;;;106.38;56.85;;;13.00;99.90;;;;;;5047491;28;19920;-68
2021/08/10 05:29:45;;;;;;;;;;;13.00;99.90;;;;;;5048174;28;20514;-70
2021/08/10 05:32:11;;;;;;;14.23;6.97;;;13.00;99.90;;;;;;5047842;28;20328;-69
2021/08/10 05:34:38;;;;;;;;;;;13.00;99.90;;;;;;5047995;28;20072;-68
2021/08/10 05:37:04;;;;;;;6.78;3.03;;;12.90;99.90;;;;;;5047699;28;20024;-68
2021/08/10 05:39:30;;;;;;;8.43;2.55;;;13.00;99.90;;;;;;5046720;28;20124;-68
2021/08/10 05:41:55;;;;;;;;;;;12.90;99.90;;;;;;5048114;28;20557;-69
2021/08/10 05:44:21;;;;;;;5.95;2.65;;;13.00;99.90;;;;;;5047083;28;20471;-68
2021/08/10 05:46:47;;;;;;;;;;;12.90;99.90;;;;;;5046502;28;20050;-68
2021/08/10 05:49:13;;;;;;;38.17;21.23;;;13.00;99.90;;;;;;5047630;28;19924;-68
2021/08/10 05:51:39;;;;;;;;;;;13.00;99.90;;;;;;5045073;28;20056;-68
2021/08/10 05:54:04;;;;;;;63.40;39.13;;;13.00;99.90;;;;;;5047106;28;19920;-68
2021/08/10 05:56:30;;;;;;;;;;;13.00;99.90;;;;;;5047291;28;20052;-68
2021/08/10 05:58:55;;;;;;;13.13;5.78;;;13.10;99.90;;;;;;5047009;28;20297;-68
2021/08/10 06:01:21;;;;;;;;;;;13.00;99.90;;;;;;5045638;28;20037;-68
2021/08/10 06:03:47;;;;;;;23.92;13.93;;;13.10;99.90;;;;;;5046669;28;19916;-69
2021/08/10 06:06:12;;;;;;;;;;;13.10;99.90;;;;;;5046985;28;20037;-69
2021/08/10 06:08:38;;;;;;;7.88;3.83;;;13.00;99.90;;;;;;5046356;28;19921;-68
2021/08/10 06:11:03;;;;;;;;;;;13.00;99.90;;;;;;5047609;28;20048;-68
2021/08/10 06:13:29;;;;;;;8.15;2.25;;;13.00;99.90;;;;;;5045875;28;19917;-68
2021/08/10 06:15:54;;;;;;;;;;;13.10;99.90;;;;;;5045059;28;20036;-69
2021/08/10 06:18:20;;;;;;;10.63;2.92;;;13.10;99.90;;;;;;5047171;28;19970;-68
2021/08/10 06:20:46;;;;;;;;;;;13.20;99.90;;;;;;5062473;28;20045;-68
2021/08/10 06:23:11;;;;;;;4.75;2.63;;;13.20;99.90;;;;;;5046741;28;19916;-69
2021/08/10 06:25:37;;;;;;;;;;;13.20;99.90;;;;;;5046984;28;20684;-68
2021/08/10 06:28:03;;;;;;;6.05;2.42;;;13.20;99.90;;;;;;5047323;28;19921;-69
2021/08/10 06:30:28;;;;;;;;;;;13.20;99.90;;;;;;5046351;28;20036;-69
2021/08/10 06:32:54;;;;;;;9.00;6.88;;;13.30;99.90;;;;;;5046209;28;19924;-68
2021/08/10 06:35:20;;;;;;;;;;;13.40;99.90;;;;;;5047303;28;20062;-67
2021/08/10 06:37:45;;;;;;;7.75;3.72;;;13.60;99.90;;;;;;5047748;28;20015;-69
2021/08/10 06:40:11;;;;;;;;;;;13.90;99.90;;;;;;5046610;28;20055;-69
2021/08/10 06:42:37;;;;;;;5.28;2.60;;;14.10;99.90;;;;;;5047133;28;19928;-68
2021/08/10 06:45:03;;;;;;;;;;;14.50;99.90;;;;;;5043578;28;20094;-68
2021/08/10 06:47:28;;;;;;;4.03;1.83;;;15.30;99.90;;;;;;5039279;28;19921;-69
2021/08/10 06:49:54;;;;;;;;;;;15.40;99.90;;;;;;5045814;28;20037;-69
2021/08/10 06:52:20;;;;;;;3.70;1.58;;;15.60;99.90;;;;;;5046015;28;19944;-68
2021/08/10 06:54:45;;;;;;;;;;;15.80;99.90;;;;;;5039294;28;20045;-69
2021/08/10 06:57:11;;;;;;;4.07;1.70;;;15.50;99.90;;;;;;5036775;28;20489;-69
2021/08/10 06:59:37;;;;;;;;;;;15.30;99.90;;;;;;5046955;28;20044;-69
2021/08/10 07:02:06;;;;;;;3.97;1.70;;;15.20;99.90;;;;;;5061109;28;19921;-69
2021/08/10 07:04:32;;;;;;;2.15;1.63;;;15.00;99.90;;;;;;5044846;28;20102;-69
2021/08/10 07:07:04;;;;;;;3.90;2.05;;;15.10;99.90;;;;;;5045776;28;20081;-69
2021/08/10 07:09:30;;;;;;;3.92;1.95;;;15.20;99.90;;;;;;5046421;28;20045;-70
2021/08/10 07:11:55;;;;;;;;;;;15.10;99.90;;;;;;5046970;28;20102;-69
2021/08/10 07:14:21;;;;;;;3.08;1.70;;;15.20;99.90;;;;;;5045932;28;19913;-69
2021/08/10 07:16:47;;;;;;;;;;;15.40;99.90;;;;;;5045453;28;20049;-69
2021/08/10 07:19:13;;;;;;;4.55;1.75;;;15.40;99.90;;;;;;5046636;28;19924;-69
2021/08/10 07:21:39;;;;;;;3.85;1.48;;;15.40;99.90;;;;;;5046781;28;20408;-69
2021/08/10 07:24:06;;;;;;;3.85;1.27;;;15.40;99.90;;;;;;5046448;28;20485;-69
2021/08/10 07:26:32;;;;;;;1.80;1.15;;;15.20;99.90;;;;;;5045971;28;20041;-69
2021/08/10 07:28:58;;;;;;;;;;;15.20;99.90;;;;;;5050040;28;20033;-69
2021/08/10 07:31:24;;;;;;;4.00;1.50;;;15.20;99.90;;;;;;5049557;28;19924;-69
2021/08/10 07:33:50;;;;;;;;;;;15.20;99.90;;;;;;5050365;28;20041;-69
2021/08/10 07:36:16;;;;;;;3.85;1.88;;;15.20;99.90;;;;;;5049955;28;19924;-69
2021/08/10 07:38:42;;;;;;;2.13;1.60;;;15.30;99.90;;;;;;5050027;28;20045;-69
2021/08/10 07:41:07;;;;;;;;;;;15.40;99.90;;;;;;5050352;28;20052;-69
2021/08/10 07:43:33;;;;;;;2.65;1.40;;;15.50;99.90;;;;;;5048115;28;19924;-69
2021/08/10 07:45:59;;;;;;;;;;;15.60;99.90;;;;;;5047866;28;20059;-69
2021/08/10 07:48:24;;;;;;;3.17;1.80;;;15.60;99.90;;;;;;5049853;28;19965;-68
2021/08/10 07:50:50;;;;;;;;;;;15.70;99.90;;;;;;5050057;28;20033;-69
2021/08/10 07:53:19;;;;;;;4.97;2.40;;;15.70;99.90;;;;;;5049581;28;19916;-67
2021/08/10 07:55:45;;;;;;;2.58;1.58;;;15.80;99.90;;;;;;5049873;28;20420;-67
2021/08/10 07:58:11;;;;;;;;;;;15.80;99.90;;;;;;5050960;28;20518;-67
2021/08/10 08:00:37;;;;;;;5.25;2.00;;;16.00;99.90;;;;;;5049876;28;19921;-69
2021/08/10 08:03:03;;;;;;;;;;;16.20;99.90;;;;;;5050257;28;20118;-68
2021/08/10 08:05:28;;;;;;;2.80;1.73;;;16.30;99.90;;;;;;5050221;28;19917;-72
2021/08/10 08:07:54;;;;;;;;;;;16.70;99.90;;;;;;5050799;28;20044;-67
2021/08/10 08:10:20;;;;;;;4.28;2.40;;;17.80;99.90;;;;;;5049704;28;19916;-68
2021/08/10 08:12:46;;;;;;;3.42;2.08;;;18.90;99.50;;;;;;5049952;28;20076;-73
2021/08/10 08:15:12;;;;;;;3.28;2.00;;;20.00;98.00;;;;;;5049863;28;20091;-67
2021/08/10 08:17:38;;;;;;;3.10;2.03;;;21.00;95.80;;;;;;5049761;28;20098;-66
2021/08/10 08:22:35;;;;;;;5.65;2.38;;;22.30;94.00;;;;;;5028864;28;20430;-71
2021/08/10 08:25:00;;;;;;;8.23;2.53;;;23.00;92.40;;;;;;5029788;28;20056;-67
2021/08/10 08:27:26;;;;;;;6.45;3.17;;;22.70;93.50;;;;;;5029075;28;20046;-71
2021/08/10 08:29:52;;;;;;;4.00;2.13;;;22.20;93.60;;;;;;5031012;28;20085;-66
2021/08/10 08:32:17;;;;;;;3.10;2.00;;;21.40;95.10;;;;;;5030513;28;20041;-66
2021/08/10 08:34:43;;;;;;;3.63;2.30;;;21.40;95.70;;;;;;5030743;28;20452;-70
2021/08/10 08:37:09;;;;;;;3.58;1.95;;;20.70;96.30;;;;;;5027754;28;20072;-66
2021/08/10 08:39:35;;;;;;;5.57;3.47;;;20.50;97.20;;;;;;5028039;28;20052;-66
2021/08/10 08:42:02;;;;;;;6.63;3.13;;;20.60;96.80;;;;;;5028379;28;20056;-66
2021/08/10 08:44:34;;;;;;;3.03;1.70;;;20.40;96.80;;;;;;5028337;28;20120;-66
2021/08/10 08:47:06;;;;;;;4.88;2.30;;;20.90;95.50;;;;;;5027421;28;20038;-67
2021/08/10 08:49:34;;;;;;;4.75;2.38;;;20.50;95.60;;;;;;5022910;28;20120;-66
2021/08/10 08:52:02;;;;;;;9.88;2.35;;;19.80;95.70;;;;;;5026888;28;20042;-66
2021/08/10 08:54:33;;;;;;;4.60;2.83;;;19.60;98.40;;;;;;5028020;28;20052;-66
2021/08/10 08:56:59;;;;;;;4.30;2.22;;;19.20;98.40;;;;;;5027598;28;20138;-66
2021/08/10 08:59:25;;;;;;;14.05;7.78;;;18.60;99.00;;;;;;5027792;28;20042;-66
2021/08/10 09:01:52;;;;;;;5.57;2.85;;;18.50;99.90;;;;;;5031794;28;20045;-66
2021/08/10 09:04:18;;;;;;;3.88;2.70;;;18.40;99.10;;;;;;5028639;28;20037;-66
2021/08/10 09:06:44;;;;;;;9.80;2.20;;;18.30;99.90;;;;;;5027351;28;20501;-66
2021/08/10 09:09:26;;;;;;;;;;;18.40;99.90;;;;;;5027722;28;20044;-66
2021/08/10 09:11:55;;;;;;;4.50;2.60;;;18.40;99.10;;;;;;5028067;28;19921;-66
2021/08/10 09:14:22;;;;;;;4.68;2.80;;;18.40;99.80;;;;;;5027721;28;20049;-66
2021/08/10 09:17:08;;;;;;;5.57;2.95;;;18.40;99.50;;;;;;5026560;28;20037;-66
2021/08/10 09:19:58;;;;;;;4.22;2.25;;;18.50;99.90;;;;;;5028116;28;20037;-66
2021/08/10 09:22:32;;;;;;;8.40;3.97;;;18.70;99.90;;;;;;5026939;28;20120;-66
2021/08/10 09:25:05;;;;;;;7.13;3.40;;;18.60;99.90;;;;;;5027923;28;20073;-65
2021/08/10 09:27:30;;;;;;;16.42;5.05;;;18.30;99.90;;;;;;5027188;28;20164;-65
2021/08/10 09:29:57;;;;;;;;;;;18.00;99.80;;;;;;5027481;28;20576;-65
2021/08/10 09:32:23;;;;;;;6.23;2.70;;;18.20;99.90;;;;;;5027053;28;19995;-66
2021/08/10 09:35:18;;;;;;;5.60;2.92;;;18.10;99.90;;;;;;5027247;28;20124;-67
2021/08/10 09:38:07;;;;;;;5.90;2.95;;;18.10;99.90;;;;;;5026963;28;20101;-67
2021/08/10 09:40:37;;;;;;;6.65;2.58;;;18.10;99.90;;;;;;5018130;28;20117;-67
2021/08/10 09:43:26;;;;;;;6.30;2.63;;;18.00;99.90;;;;;;5026532;28;20033;-67
2021/08/10 09:46:07;;;;;;;6.10;2.85;;;18.10;99.90;;;;;;5022593;28;20042;-67
2021/08/10 09:48:33;;;;;;;4.45;2.40;;;18.40;99.50;;;;;;5027181;28;20045;-67
2021/08/10 09:51:21;;;;;;;4.78;2.67;;;18.40;99.80;;;;;;5025691;28;20783;-67
2021/08/10 09:54:01;;;;;;;4.72;2.70;;;18.60;99.20;;;;;;5027680;28;20064;-67
2021/08/10 09:56:50;;;;;;;8.15;2.80;;;18.40;99.00;;;;;;5039507;28;20057;-67
2021/08/10 09:59:18;;;;;;;15.45;7.43;;;18.60;99.90;;;;;;5007982;28;20046;-68
2021/08/10 10:01:45;;;;;;;6.00;2.67;;;18.50;99.90;;;;;;5007422;28;20052;-68
2021/08/10 10:04:26;;;;;;;4.28;2.50;;;18.60;99.50;;;;;;5007526;28;20701;-67
2021/08/10 10:07:09;;;;;;;5.68;2.58;;;18.80;99.50;;;;;;5011769;28;20064;-68
2021/08/10 10:09:34;;;;;;;7.05;2.97;;;18.60;98.80;;;;;;5021063;28;20045;-67
2021/08/10 10:12:00;;;;;;;;;;;18.60;98.60;;;;;;5027833;28;20045;-67
2021/08/10 10:14:27;;;;;;;4.88;3.03;;;18.40;99.00;;;;;;5028437;28;19927;-67
2021/08/10 10:16:54;;;;;;;5.20;2.65;;;18.40;99.40;;;;;;5026351;28;20049;-67
2021/08/10 10:19:21;;;;;;;4.70;2.97;;;18.60;99.20;;;;;;5026784;28;20052;-67
2021/08/10 10:21:50;;;;;;;5.45;3.03;;;18.60;99.20;;;;;;5026438;28;20044;-67
2021/08/10 10:24:17;;;;;;;5.97;2.80;;;18.60;99.10;;;;;;5027865;28;20045;-68
2021/08/10 10:26:45;;;;;;;4.00;2.30;;;18.70;99.40;;;;;;5026165;28;20041;-67
2021/08/10 10:29:14;;;;;;;4.57;2.60;;;18.80;99.90;;;;;;5025883;28;20071;-68
2021/08/10 10:31:41;;;;;;;4.18;2.80;;;19.00;99.80;;;;;;5026542;28;20045;-67
2021/08/10 10:34:09;;;;;;;6.50;3.67;;;19.20;98.60;;;;;;5026700;28;20484;-67
2021/08/10 10:36:35;;;;;;;5.18;3.03;;;19.10;97.60;;;;;;5026523;28;20049;-68
2021/08/10 10:39:01;;;;;;;;;;;19.10;98.30;;;;;;5026851;28;20053;-68
2021/08/10 10:41:32;;;;;;;5.63;3.33;;;19.00;98.40;;;;;;5026119;28;19944;-68
2021/08/10 10:43:58;;;;;;;6.00;3.20;;;18.90;97.90;;;;;;5026232;28;20046;-68
2021/08/10 10:46:26;;;;;;;5.63;2.95;;;19.00;97.30;;;;;;5026383;28;20037;-67
2021/08/10 10:48:52;;;;;;;6.43;3.10;;;18.80;97.80;;;;;;5026130;28;20049;-68
2021/08/10 10:51:32;;;;;;;7.32;3.08;;;18.70;97.70;;;;;;5026409;28;20513;-68
2021/08/10 10:54:25;;;;;;;3.72;2.58;;;18.60;98.60;;;;;;5026334;28;20111;-68
2021/08/10 10:56:53;;;;;;;7.07;3.20;;;18.50;98.50;;;;;;5025857;28;20390;-68
2021/08/10 10:59:23;;;;;;;6.30;3.17;;;18.50;98.80;;;;;;5026512;28;20053;-68
2021/08/10 11:01:49;;;;;;;5.72;3.35;;;18.30;98.50;;;;;;5025535;28;20042;-68
2021/08/10 11:04:15;;;;;;;6.97;3.25;;;18.40;99.70;;;;;;5026318;28;20037;-68
2021/08/10 11:06:43;;;;;;;;;;;18.50;99.30;;;;;;5026327;28;20397;-68
2021/08/10 11:09:29;;;;;;;5.82;3.20;;;18.50;98.30;;;;;;5026229;28;19921;-68
2021/08/10 11:11:55;;;;;;;5.30;3.40;;;18.40;98.30;;;;;;5026338;28;20037;-67
2021/08/10 11:14:39;;;;;;;4.00;2.88;;;18.40;98.30;;;;;;5025649;28;20045;-67
2021/08/10 11:17:07;;;;;;;6.68;3.50;;;18.60;98.70;;;;;;5025203;28;20525;-68
2021/08/10 11:19:34;;;;;;;6.13;3.70;;;18.90;98.80;;;;;;5024804;28;20055;-67
2021/08/10 11:22:15;;;;;;;6.57;3.17;;;19.10;98.30;;;;;;5025801;28;20035;-68
2021/08/10 11:25:19;;;;;;;5.60;3.33;;;18.90;98.30;;;;;;5026386;28;20125;-68
2021/08/10 11:27:44;;;;;;;5.60;3.15;;;19.00;98.00;;;;;;5026233;28;20045;-68
2021/08/10 11:30:30;;;;;;;;;;;19.20;97.90;;;;;;5025903;28;20441;-68
2021/08/10 11:32:55;;;;;;;;;;;19.10;98.00;;;;;;5017700;28;19925;-68
2021/08/10 11:35:21;;;;;;;;;;;19.00;97.60;;;;;;5021901;28;19948;-66
2021/08/10 11:38:13;;;;;;;;;;;18.80;97.70;;;;;;5026400;28;19971;-67
2021/08/10 11:40:58;;;;;;;;;;;18.60;97.70;;;;;;5003345;28;20012;-67
2021/08/10 11:43:42;;;;;;;;;;;18.50;98.20;;;;;;5047426;28;19917;-67
2021/08/10 11:46:13;;;;;;;;;;;18.40;98.60;;;;;;5022910;28;19924;-67
2021/08/10 11:48:42;;;;;;;;;;;18.40;99.10;;;;;;5026192;28;19971;-67
2021/08/10 11:51:19;;;;;;;;;;;18.40;99.90;;;;;;5026237;28;19978;-67
2021/08/10 11:53:45;;;;;;;;;;;18.30;98.90;;;;;;5026422;28;19924;-67
2021/08/10 11:56:23;;;;;;;;;;;18.30;99.90;;;;;;5025798;28;19916;-67
2021/08/10 11:58:48;;;;;;;;;;;18.30;99.90;;;;;;5030589;28;19920;-66
2021/08/10 12:01:14;;;;;;;;;;;18.20;99.90;;;;;;5026342;28;20138;-67
2021/08/10 12:03:40;;;;;;;;;;;18.10;99.90;;;;;;5026445;28;19943;-68
2021/08/10 12:06:05;;;;;;;;;;;18.10;99.90;;;;;;5026767;28;19947;-66
2021/08/10 12:08:31;;;;;;;;;;;18.10;99.90;;;;;;5026065;28;19925;-67
2021/08/10 12:10:57;;;;;;;;;;;18.10;99.90;;;;;;5023105;28;19921;-66
2021/08/10 12:13:23;;;;;;;;;;;18.10;99.90;;;;;;5026585;28;19928;-66
2021/08/10 12:15:49;;;;;;;;;;;18.00;99.90;;;;;;5029048;28;19971;-66
2021/08/10 12:18:16;;;;;;;;;;;17.80;99.90;;;;;;5030132;28;19917;-68
2021/08/10 12:20:42;;;;;;;;;;;17.60;99.90;;;;;;5029448;28;19921;-67
2021/08/10 12:23:09;;;;;;;;;;;17.50;99.90;;;;;;5029411;28;20015;-68
2021/08/10 12:25:35;;;;;;;;;;;17.40;99.90;;;;;;5029346;28;19913;-67
2021/08/10 12:28:08;;;;;;;;;;;17.10;99.90;;;;;;5029680;28;19916;-67
2021/08/10 12:30:34;;;;;;;;;;;17.10;99.90;;;;;;5029230;28;19939;-68
2021/08/10 12:33:09;;;;;;;;;;;17.10;99.90;;;;;;5029313;28;20389;-68
2021/08/10 12:35:34;;;;;;;;;;;16.90;99.90;;;;;;5028307;28;20440;-67
2021/08/10 12:38:01;;;;;;;;;;;17.00;99.90;;;;;;5027750;28;19921;-68
2021/08/10 12:40:27;;;;;;;;;;;17.10;99.90;;;;;;5028982;28;19960;-68
2021/08/10 12:42:53;;;;;;;;;;;17.00;99.90;;;;;;5029562;28;20345;-67
2021/08/10 12:45:19;;;;;;;;;;;17.00;99.90;;;;;;5028110;28;19921;-68
2021/08/10 12:47:44;;;;;;;;;;;17.30;99.90;;;;;;5028041;28;19928;-67
2021/08/10 12:50:23;;;;;;;;;;;17.50;99.90;;;;;;5028783;28;20365;-67
2021/08/10 12:52:48;;;;;;;;;;;17.60;99.90;;;;;;5028593;28;19928;-67
2021/08/10 12:55:14;;;;;;;;;;;17.80;99.90;;;;;;5028805;28;20231;-68
2021/08/10 12:57:39;;;;;;;;;;;18.00;99.90;;;;;;5027780;28;19975;-67
2021/08/10 13:00:15;;;;;;;;;;;18.00;99.90;;;;;;5029307;28;19924;-68
2021/08/10 13:02:42;;;;;;;;;;;18.10;99.90;;;;;;5027785;28;19963;-67
2021/08/10 13:05:12;;;;;;;;;;;18.20;99.90;;;;;;5027551;28;20004;-67
2021/08/10 13:07:39;;;;;;;;;;;18.30;99.90;;;;;;5028468;28;20529;-68
2021/08/10 13:10:09;;;;;;;;;;;18.30;99.90;;;;;;5028155;28;19923;-67
2021/08/10 13:12:34;;;;;;;;;;;18.30;99.90;;;;;;5028914;28;19927;-67
2021/08/10 13:15:01;;;;;;;;;;;18.30;99.90;;;;;;5028834;28;19924;-68
2021/08/10 13:17:31;;;;;;;;;;;18.30;99.90;;;;;;5027383;28;19921;-67
2021/08/10 13:20:06;;;;;;;;;;;18.10;99.90;;;;;;5028089;28;19975;-67
2021/08/10 13:22:42;;;;;;;;;;;18.10;99.90;;;;;;5028451;28;20008;-67
2021/08/10 13:25:09;;;;;;;;;;;18.00;99.90;;;;;;5028171;28;19920;-67